createdAt,value
2017-08-27T00:00:12.452Z,18.96
2017-08-27T00:01:12.448Z,18.94
2017-08-27T00:02:12.130Z,18.94
2017-08-27T00:03:12.438Z,18.94
2017-08-27T00:04:11.809Z,18.89
2017-08-27T00:05:12.436Z,18.89
2017-08-27T00:06:12.431Z,18.92
2017-08-27T00:07:12.120Z,18.86
2017-08-27T00:08:12.115Z,18.89
2017-08-27T00:09:12.113Z,18.91
2017-08-27T00:10:12.110Z,18.88
2017-08-27T00:11:12.206Z,18.85
2017-08-27T00:12:12.106Z,18.92
2017-08-27T00:13:12.102Z,18.91
2017-08-27T00:14:12.104Z,18.89
2017-08-27T00:15:12.098Z,18.88
2017-08-27T00:16:12.412Z,18.94
2017-08-27T00:17:12.093Z,18.94
2017-08-27T00:18:12.414Z,18.81
2017-08-27T00:19:12.090Z,18.81
2017-08-27T00:20:12.408Z,18.88
2017-08-27T00:21:12.401Z,18.78
2017-08-27T00:22:12.080Z,18.83
2017-08-27T00:23:12.395Z,18.82
2017-08-27T00:24:12.086Z,18.81
2017-08-27T00:25:11.874Z,18.82
2017-08-27T00:26:12.387Z,18.81
2017-08-27T00:27:11.757Z,18.82
2017-08-27T00:28:12.384Z,18.79
2017-08-27T00:29:12.066Z,18.79
2017-08-27T00:30:11.848Z,18.79
2017-08-27T00:31:12.374Z,18.7
2017-08-27T00:32:11.744Z,18.66
2017-08-27T00:33:12.377Z,18.78
2017-08-27T00:34:12.367Z,18.73
2017-08-27T00:35:12.366Z,18.81
2017-08-27T00:36:12.050Z,18.68
2017-08-27T00:37:12.048Z,18.67
2017-08-27T00:38:12.358Z,18.63
2017-08-27T00:39:11.831Z,18.82
2017-08-27T00:40:12.357Z,18.68
2017-08-27T00:41:12.042Z,18.68
2017-08-27T00:42:12.038Z,18.68
2017-08-27T00:43:12.031Z,18.68
2017-08-27T00:44:12.031Z,18.66
2017-08-27T00:45:12.343Z,18.67
2017-08-27T00:46:12.025Z,18.68
2017-08-27T00:47:12.049Z,18.64
2017-08-27T00:48:11.710Z,18.64
2017-08-27T00:49:12.038Z,18.64
2017-08-27T00:50:12.014Z,18.6
2017-08-27T00:51:12.323Z,18.52
2017-08-27T00:52:11.697Z,18.63
2017-08-27T00:53:12.008Z,18.53
2017-08-27T00:54:12.008Z,18.52
2017-08-27T00:55:12.003Z,18.52
2017-08-27T00:56:11.790Z,18.57
2017-08-27T00:57:11.998Z,18.52
2017-08-27T00:58:12.312Z,18.52
2017-08-27T00:59:11.682Z,18.55
2017-08-27T01:00:11.995Z,18.55
2017-08-27T01:01:11.673Z,18.49
2017-08-27T01:02:11.773Z,18.43
2017-08-27T01:03:11.987Z,18.43
2017-08-27T01:04:11.979Z,18.43
2017-08-27T01:05:12.081Z,18.42
2017-08-27T01:06:11.981Z,18.43
2017-08-27T01:07:11.974Z,18.34
2017-08-27T01:08:11.659Z,18.45
2017-08-27T01:09:11.968Z,18.42
2017-08-27T01:10:11.977Z,18.43
2017-08-27T01:11:12.280Z,18.36
2017-08-27T01:12:12.274Z,18.36
2017-08-27T01:13:12.059Z,18.28
2017-08-27T01:14:11.957Z,18.21
2017-08-27T01:15:11.640Z,18.16
2017-08-27T01:16:12.262Z,18.21
2017-08-27T01:17:11.953Z,18.24
2017-08-27T01:18:11.632Z,18.12
2017-08-27T01:19:11.947Z,18.13
2017-08-27T01:20:12.259Z,18.13
2017-08-27T01:21:12.251Z,18.15
2017-08-27T01:22:12.254Z,18.13
2017-08-27T01:23:11.939Z,18.08
2017-08-27T01:24:11.936Z,18.15
2017-08-27T01:25:11.618Z,18.15
2017-08-27T01:26:11.930Z,18.11
2017-08-27T01:27:12.240Z,18.13
2017-08-27T01:28:11.610Z,18.18
2017-08-27T01:29:11.923Z,18.13
2017-08-27T01:30:12.231Z,18.12
2017-08-27T01:31:11.916Z,18.15
2017-08-27T01:32:11.910Z,18.12
2017-08-27T01:33:11.595Z,18.13
2017-08-27T01:34:12.224Z,18.12
2017-08-27T01:35:12.225Z,18.18
2017-08-27T01:36:12.322Z,18.12
2017-08-27T01:37:11.906Z,18.12
2017-08-27T01:38:12.220Z,18.15
2017-08-27T01:39:12.213Z,18.16
2017-08-27T01:40:11.582Z,18.18
2017-08-27T01:41:11.915Z,18.11
2017-08-27T01:42:11.672Z,18.11
2017-08-27T01:43:11.893Z,18.15
2017-08-27T01:44:11.569Z,18.12
2017-08-27T01:45:11.881Z,18.13
2017-08-27T01:46:11.877Z,18.06
2017-08-27T01:47:11.560Z,18.06
2017-08-27T01:48:12.183Z,18.12
2017-08-27T01:49:12.184Z,18.09
2017-08-27T01:50:11.554Z,18.09
2017-08-27T01:51:11.870Z,18.16
2017-08-27T01:52:12.281Z,18.23
2017-08-27T01:53:11.548Z,18.24
2017-08-27T01:54:11.857Z,18.18
2017-08-27T01:55:11.854Z,18.24
2017-08-27T01:56:12.170Z,18.27
2017-08-27T01:57:11.851Z,18.26
2017-08-27T01:58:12.271Z,18.23
2017-08-27T01:59:11.858Z,18.23
2017-08-27T02:00:12.156Z,18.19
2017-08-27T02:01:11.941Z,18.23
2017-08-27T02:02:11.526Z,18.11
2017-08-27T02:03:12.251Z,18.05
2017-08-27T02:04:11.519Z,18.12
2017-08-27T02:05:11.834Z,18.12
2017-08-27T02:06:11.515Z,18.13
2017-08-27T02:07:11.515Z,18.06
2017-08-27T02:08:12.136Z,18.02
2017-08-27T02:09:12.148Z,17.93
2017-08-27T02:10:12.147Z,17.88
2017-08-27T02:11:12.130Z,17.94
2017-08-27T02:12:11.915Z,17.91
2017-08-27T02:13:11.813Z,17.95
2017-08-27T02:14:11.810Z,17.91
2017-08-27T02:15:12.123Z,18
2017-08-27T02:16:11.803Z,17.98
2017-08-27T02:17:12.111Z,17.95
2017-08-27T02:18:12.118Z,17.97
2017-08-27T02:19:12.113Z,17.91
2017-08-27T02:20:11.796Z,17.93
2017-08-27T02:21:12.099Z,18
2017-08-27T02:22:11.810Z,17.95
2017-08-27T02:23:11.789Z,17.93
2017-08-27T02:24:11.572Z,17.95
2017-08-27T02:25:12.096Z,17.98
2017-08-27T02:26:11.465Z,17.88
2017-08-27T02:27:12.089Z,17.98
2017-08-27T02:28:12.093Z,17.97
2017-08-27T02:29:11.768Z,17.93
2017-08-27T02:30:11.765Z,17.93
2017-08-27T02:31:12.083Z,17.84
2017-08-27T02:32:11.778Z,17.8
2017-08-27T02:33:12.177Z,17.87
2017-08-27T02:34:11.761Z,17.8
2017-08-27T02:35:12.168Z,17.78
2017-08-27T02:36:11.437Z,17.8
2017-08-27T02:37:12.078Z,17.8
2017-08-27T02:38:12.067Z,17.79
2017-08-27T02:39:11.745Z,17.84
2017-08-27T02:40:11.845Z,17.75
2017-08-27T02:41:11.744Z,17.84
2017-08-27T02:42:11.735Z,17.84
2017-08-27T02:43:11.739Z,17.8
2017-08-27T02:44:12.047Z,17.82
2017-08-27T02:45:11.731Z,17.8
2017-08-27T02:46:12.149Z,17.82
2017-08-27T02:47:11.722Z,17.88
2017-08-27T02:48:11.721Z,17.78
2017-08-27T02:49:12.047Z,17.86
2017-08-27T02:50:11.402Z,17.88
2017-08-27T02:51:11.716Z,17.84
2017-08-27T02:52:11.711Z,17.88
2017-08-27T02:53:12.026Z,17.93
2017-08-27T02:54:11.391Z,17.95
2017-08-27T02:55:11.389Z,17.95
2017-08-27T02:56:12.012Z,17.95
2017-08-27T02:57:11.697Z,17.91
2017-08-27T02:58:11.383Z,17.98
2017-08-27T02:59:11.690Z,17.97
2017-08-27T03:00:12.005Z,17.98
2017-08-27T03:01:11.374Z,17.93
2017-08-27T03:02:11.368Z,17.94
2017-08-27T03:03:11.682Z,17.91
2017-08-27T03:04:11.990Z,18.05
2017-08-27T03:05:11.363Z,18.02
2017-08-27T03:06:11.458Z,18.02
2017-08-27T03:07:11.671Z,17.95
2017-08-27T03:08:11.671Z,17.95
2017-08-27T03:09:11.982Z,18
2017-08-27T03:10:11.976Z,18.02
2017-08-27T03:11:11.660Z,18.08
2017-08-27T03:12:11.657Z,18.05
2017-08-27T03:13:11.656Z,18.18
2017-08-27T03:14:11.651Z,18.03
2017-08-27T03:15:11.652Z,18.11
2017-08-27T03:16:11.332Z,18.12
2017-08-27T03:17:11.962Z,18.09
2017-08-27T03:18:11.644Z,18.02
2017-08-27T03:19:11.638Z,17.98
2017-08-27T03:20:11.948Z,18.03
2017-08-27T03:21:11.949Z,18.08
2017-08-27T03:22:11.313Z,18.11
2017-08-27T03:23:11.629Z,18.03
2017-08-27T03:24:11.625Z,17.91
2017-08-27T03:25:11.308Z,17.97
2017-08-27T03:26:11.931Z,18
2017-08-27T03:27:11.619Z,17.93
2017-08-27T03:28:11.628Z,17.95
2017-08-27T03:29:11.296Z,17.9
2017-08-27T03:30:11.616Z,17.97
2017-08-27T03:31:11.614Z,17.98
2017-08-27T03:32:11.705Z,17.91
2017-08-27T03:33:11.604Z,17.94
2017-08-27T03:34:11.700Z,17.95
2017-08-27T03:35:11.605Z,17.97
2017-08-27T03:36:11.590Z,17.95
2017-08-27T03:37:11.592Z,17.95
2017-08-27T03:38:12.008Z,17.91
2017-08-27T03:39:11.900Z,17.98
2017-08-27T03:40:11.268Z,18
2017-08-27T03:41:11.589Z,17.98
2017-08-27T03:42:11.889Z,18
2017-08-27T03:43:11.576Z,17.98
2017-08-27T03:44:11.257Z,17.97
2017-08-27T03:45:11.569Z,18.08
2017-08-27T03:46:11.569Z,18.08
2017-08-27T03:47:11.569Z,18.09
2017-08-27T03:48:11.563Z,18.02
2017-08-27T03:49:11.875Z,18.11
2017-08-27T03:50:11.973Z,18.03
2017-08-27T03:51:11.869Z,18.03
2017-08-27T03:52:11.552Z,18.05
2017-08-27T03:53:11.549Z,18
2017-08-27T03:54:11.856Z,18.03
2017-08-27T03:55:11.227Z,18.03
2017-08-27T03:56:11.968Z,18.03
2017-08-27T03:57:11.538Z,18.06
2017-08-27T03:58:11.534Z,18.02
2017-08-27T03:59:11.844Z,17.95
2017-08-27T04:00:11.216Z,17.98
2017-08-27T04:01:11.523Z,17.93
2017-08-27T04:02:11.208Z,17.94
2017-08-27T04:03:11.520Z,17.98
2017-08-27T04:04:11.832Z,17.93
2017-08-27T04:05:11.514Z,17.93
2017-08-27T04:06:11.512Z,17.97
2017-08-27T04:07:11.510Z,17.9
2017-08-27T04:08:11.510Z,17.87
2017-08-27T04:09:11.503Z,17.87
2017-08-27T04:10:11.192Z,17.82
2017-08-27T04:11:11.184Z,17.8
2017-08-27T04:12:11.809Z,17.78
2017-08-27T04:13:11.493Z,17.8
2017-08-27T04:14:11.805Z,17.82
2017-08-27T04:15:11.487Z,17.73
2017-08-27T04:16:11.485Z,17.75
2017-08-27T04:17:11.794Z,17.84
2017-08-27T04:18:11.482Z,17.75
2017-08-27T04:19:11.792Z,17.73
2017-08-27T04:20:11.470Z,17.69
2017-08-27T04:21:11.789Z,17.72
2017-08-27T04:22:11.470Z,17.75
2017-08-27T04:23:11.150Z,17.73
2017-08-27T04:24:11.785Z,17.66
2017-08-27T04:25:11.250Z,17.65
2017-08-27T04:26:11.145Z,17.66
2017-08-27T04:27:11.455Z,17.56
2017-08-27T04:28:11.771Z,17.53
2017-08-27T04:29:11.239Z,17.56
2017-08-27T04:30:11.758Z,17.44
2017-08-27T04:31:11.756Z,17.41
2017-08-27T04:32:11.750Z,17.47
2017-08-27T04:33:11.753Z,17.44
2017-08-27T04:34:11.747Z,17.56
2017-08-27T04:35:11.534Z,17.44
2017-08-27T04:36:11.751Z,17.44
2017-08-27T04:37:11.426Z,17.46
2017-08-27T04:38:11.740Z,17.44
2017-08-27T04:39:11.426Z,17.57
2017-08-27T04:40:11.418Z,17.44
2017-08-27T04:41:11.431Z,17.6
2017-08-27T04:42:11.512Z,17.53
2017-08-27T04:43:11.414Z,17.52
2017-08-27T04:44:11.723Z,17.57
2017-08-27T04:45:11.406Z,17.54
2017-08-27T04:46:11.411Z,17.53
2017-08-27T04:47:11.399Z,17.57
2017-08-27T04:48:11.397Z,17.69
2017-08-27T04:49:11.391Z,17.6
2017-08-27T04:50:11.399Z,17.71
2017-08-27T04:51:11.391Z,17.65
2017-08-27T04:52:11.389Z,17.66
2017-08-27T04:53:11.383Z,17.57
2017-08-27T04:54:11.380Z,17.68
2017-08-27T04:55:11.378Z,17.71
2017-08-27T04:56:11.689Z,17.82
2017-08-27T04:57:11.372Z,17.84
2017-08-27T04:58:11.057Z,17.9
2017-08-27T04:59:11.685Z,17.94
2017-08-27T05:00:11.363Z,17.93
2017-08-27T05:01:11.048Z,18.02
2017-08-27T05:02:11.357Z,17.9
2017-08-27T05:03:11.460Z,17.95
2017-08-27T05:04:11.360Z,17.98
2017-08-27T05:05:11.351Z,18.05
2017-08-27T05:06:11.350Z,18.12
2017-08-27T05:07:11.660Z,18.13
2017-08-27T05:08:11.029Z,18.18
2017-08-27T05:09:11.340Z,18.15
2017-08-27T05:10:11.340Z,18.16
2017-08-27T05:11:11.646Z,18.13
2017-08-27T05:12:11.644Z,18.26
2017-08-27T05:13:11.336Z,18.33
2017-08-27T05:14:11.014Z,18.39
2017-08-27T05:15:11.011Z,18.55
2017-08-27T05:16:11.320Z,18.6
2017-08-27T05:17:11.641Z,18.67
2017-08-27T05:18:11.003Z,18.73
2017-08-27T05:19:11.627Z,18.78
2017-08-27T05:20:11.626Z,18.78
2017-08-27T05:21:11.307Z,18.82
2017-08-27T05:22:11.619Z,18.83
2017-08-27T05:23:10.999Z,18.74
2017-08-27T05:24:11.616Z,18.71
2017-08-27T05:25:11.300Z,18.63
2017-08-27T05:26:11.612Z,18.74
2017-08-27T05:27:11.082Z,18.64
2017-08-27T05:28:11.290Z,18.81
2017-08-27T05:29:10.975Z,18.82
2017-08-27T05:30:11.599Z,18.81
2017-08-27T05:31:11.285Z,18.96
2017-08-27T05:32:11.281Z,19
2017-08-27T05:33:11.302Z,19.19
2017-08-27T05:34:11.276Z,19.3
2017-08-27T05:35:10.959Z,19.39
2017-08-27T05:36:11.083Z,19.6
2017-08-27T05:37:11.581Z,19.66
2017-08-27T05:38:11.578Z,19.81
2017-08-27T05:39:10.952Z,19.93
2017-08-27T05:40:11.258Z,20.18
2017-08-27T05:41:10.949Z,20.21
2017-08-27T05:42:11.568Z,20.44
2017-08-27T05:43:11.358Z,20.58
2017-08-27T05:44:11.564Z,20.67
2017-08-27T05:45:11.252Z,20.77
2017-08-27T05:46:11.246Z,20.9
2017-08-27T05:47:11.244Z,21.15
2017-08-27T05:48:11.557Z,21.19
2017-08-27T05:49:11.555Z,21.4
2017-08-27T05:50:11.239Z,21.56
2017-08-27T05:51:11.550Z,21.69
2017-08-27T05:52:11.334Z,21.78
2017-08-27T05:53:11.229Z,21.92
2017-08-27T05:54:11.230Z,22.08
2017-08-27T05:55:11.539Z,22.21
2017-08-27T05:56:11.647Z,22.43
2017-08-27T05:57:11.546Z,22.53
2017-08-27T05:58:11.322Z,22.7
2017-08-27T05:59:11.528Z,22.8
2017-08-27T06:00:11.211Z,23.06
2017-08-27T06:01:11.213Z,23.04
2017-08-27T06:02:11.205Z,23.16
2017-08-27T06:03:11.522Z,23.28
2017-08-27T06:04:11.304Z,23.47
2017-08-27T06:05:11.519Z,23.59
2017-08-27T06:06:11.201Z,23.58
2017-08-27T06:07:11.508Z,23.62
2017-08-27T06:08:11.198Z,23.74
2017-08-27T06:09:11.194Z,23.82
2017-08-27T06:10:11.194Z,23.86
2017-08-27T06:11:11.508Z,23.95
2017-08-27T06:12:11.196Z,24
2017-08-27T06:13:10.877Z,23.82
2017-08-27T06:14:11.501Z,23.85
2017-08-27T06:15:11.193Z,24.06
2017-08-27T06:16:11.498Z,24.4
2017-08-27T06:17:10.874Z,24.66
2017-08-27T06:18:11.595Z,24.81
2017-08-27T06:19:11.493Z,25.11
2017-08-27T06:20:11.179Z,25.25
2017-08-27T06:21:11.181Z,25.46
2017-08-27T06:22:11.487Z,25.63
2017-08-27T06:23:11.487Z,25.89
2017-08-27T06:24:11.173Z,26.15
2017-08-27T06:25:11.171Z,26.29
2017-08-27T06:26:11.482Z,26.27
2017-08-27T06:27:11.171Z,26.19
2017-08-27T06:28:11.482Z,25.89
2017-08-27T06:29:11.169Z,25.62
2017-08-27T06:30:11.486Z,25.3
2017-08-27T06:31:11.165Z,24.92
2017-08-27T06:32:10.854Z,24.62
2017-08-27T06:33:11.174Z,24.46
2017-08-27T06:34:10.851Z,24.13
2017-08-27T06:35:11.162Z,23.99
2017-08-27T06:36:11.164Z,23.79
2017-08-27T06:37:11.473Z,23.58
2017-08-27T06:38:11.162Z,23.64
2017-08-27T06:39:11.475Z,23.63
2017-08-27T06:40:11.157Z,23.81
2017-08-27T06:41:11.183Z,24.03
2017-08-27T06:42:11.166Z,24.5
2017-08-27T06:43:11.153Z,24.81
2017-08-27T06:44:11.152Z,25.19
2017-08-27T06:45:11.460Z,25.67
2017-08-27T06:46:11.469Z,26.07
2017-08-27T06:47:11.462Z,26.39
2017-08-27T06:48:11.459Z,26.66
2017-08-27T06:49:10.935Z,26.78
2017-08-27T06:50:10.832Z,27.04
2017-08-27T06:51:10.848Z,27.19
2017-08-27T06:52:11.142Z,27.28
2017-08-27T06:53:11.463Z,27.5
2017-08-27T06:54:11.143Z,27.76
2017-08-27T06:55:11.139Z,27.97
2017-08-27T06:56:11.144Z,27.93
2017-08-27T06:57:11.447Z,28.1
2017-08-27T06:58:11.136Z,28.19
2017-08-27T06:59:11.480Z,28.25
2017-08-27T07:00:11.455Z,28.22
2017-08-27T07:01:10.819Z,28.31
2017-08-27T07:02:10.825Z,28.43
2017-08-27T07:03:10.820Z,28.49
2017-08-27T07:04:11.226Z,28.6
2017-08-27T07:05:11.130Z,28.65
2017-08-27T07:06:10.817Z,28.77
2017-08-27T07:07:11.127Z,29.09
2017-08-27T07:08:11.439Z,29.21
2017-08-27T07:09:11.439Z,29.25
2017-08-27T07:10:11.126Z,29.07
2017-08-27T07:11:11.444Z,28.67
2017-08-27T07:12:11.446Z,28.13
2017-08-27T07:13:11.434Z,27.85
2017-08-27T07:14:10.813Z,27.41
2017-08-27T07:15:11.120Z,27.04
2017-08-27T07:16:11.434Z,26.71
2017-08-27T07:17:11.119Z,26.26
2017-08-27T07:18:11.439Z,26.06
2017-08-27T07:19:11.429Z,25.74
2017-08-27T07:20:11.118Z,25.49
2017-08-27T07:21:11.117Z,25.37
2017-08-27T07:22:11.114Z,25.21
2017-08-27T07:23:11.214Z,25.07
2017-08-27T07:24:11.115Z,25
2017-08-27T07:25:10.901Z,24.92
2017-08-27T07:26:11.114Z,25.06
2017-08-27T07:27:11.424Z,25.14
2017-08-27T07:28:11.425Z,25.04
2017-08-27T07:29:11.109Z,24.96
2017-08-27T07:30:11.429Z,24.77
2017-08-27T07:31:11.102Z,24.63
2017-08-27T07:32:11.202Z,24.5
2017-08-27T07:33:11.201Z,24.38
2017-08-27T07:34:10.788Z,24.25
2017-08-27T07:35:11.103Z,24.16
2017-08-27T07:36:11.412Z,24
2017-08-27T07:37:11.094Z,24
2017-08-27T07:38:11.409Z,23.92
2017-08-27T07:39:11.410Z,23.95
2017-08-27T07:40:11.200Z,23.94
2017-08-27T07:41:10.780Z,23.99
2017-08-27T07:42:10.780Z,24.03
2017-08-27T07:43:11.399Z,24.01
2017-08-27T07:44:11.194Z,24.03
2017-08-27T07:45:10.770Z,24.04
2017-08-27T07:46:11.082Z,24.04
2017-08-27T07:47:11.079Z,24.09
2017-08-27T07:48:11.389Z,24.13
2017-08-27T07:49:11.393Z,24.25
2017-08-27T07:50:11.389Z,24.46
2017-08-27T07:51:11.074Z,24.69
2017-08-27T07:52:11.119Z,24.78
2017-08-27T07:53:11.172Z,25.07
2017-08-27T07:54:11.070Z,25.07
2017-08-27T07:55:11.381Z,25.21
2017-08-27T07:56:11.376Z,25.31
2017-08-27T07:57:11.062Z,25.41
2017-08-27T07:58:10.750Z,25.52
2017-08-27T07:59:11.061Z,25.58
2017-08-27T08:00:11.063Z,25.51
2017-08-27T08:01:11.377Z,25.61
2017-08-27T08:02:11.370Z,25.58
2017-08-27T08:03:11.056Z,25.67
2017-08-27T08:04:11.056Z,25.77
2017-08-27T08:05:10.739Z,25.85
2017-08-27T08:06:11.363Z,25.81
2017-08-27T08:07:11.461Z,25.83
2017-08-27T08:08:11.362Z,25.8
2017-08-27T08:09:11.361Z,25.61
2017-08-27T08:10:11.043Z,25.67
2017-08-27T08:11:11.361Z,25.49
2017-08-27T08:12:11.359Z,25.54
2017-08-27T08:13:11.037Z,25.51
2017-08-27T08:14:11.354Z,25.48
2017-08-27T08:15:11.353Z,25.54
2017-08-27T08:16:10.725Z,25.46
2017-08-27T08:17:11.034Z,25.48
2017-08-27T08:18:11.034Z,25.49
2017-08-27T08:19:11.344Z,25.41
2017-08-27T08:20:11.031Z,25.43
2017-08-27T08:21:11.343Z,25.39
2017-08-27T08:22:10.716Z,25.34
2017-08-27T08:23:10.716Z,25.34
2017-08-27T08:24:11.126Z,25.31
2017-08-27T08:25:11.027Z,25.33
2017-08-27T08:26:11.024Z,25.36
2017-08-27T08:27:11.024Z,25.44
2017-08-27T08:28:11.024Z,25.44
2017-08-27T08:29:11.016Z,25.55
2017-08-27T08:30:11.336Z,25.52
2017-08-27T08:31:11.328Z,25.54
2017-08-27T08:32:11.016Z,25.54
2017-08-27T08:33:11.015Z,25.49
2017-08-27T08:34:11.015Z,25.44
2017-08-27T08:35:11.113Z,25.46
2017-08-27T08:36:10.699Z,25.34
2017-08-27T08:37:11.112Z,25.36
2017-08-27T08:38:10.694Z,25.37
2017-08-27T08:39:10.696Z,25.3
2017-08-27T08:40:11.108Z,25.34
2017-08-27T08:41:11.339Z,25.4
2017-08-27T08:42:11.316Z,25.41
2017-08-27T08:43:10.787Z,25.54
2017-08-27T08:44:11.312Z,25.67
2017-08-27T08:45:11.316Z,25.77
2017-08-27T08:46:11.000Z,25.78
2017-08-27T08:47:10.994Z,25.85
2017-08-27T08:48:10.994Z,25.91
2017-08-27T08:49:10.991Z,25.96
2017-08-27T08:50:10.780Z,25.93
2017-08-27T08:51:11.418Z,25.99
2017-08-27T08:52:11.300Z,26.04
2017-08-27T08:53:10.987Z,26.1
2017-08-27T08:54:11.300Z,26.1
2017-08-27T08:55:11.296Z,26.1
2017-08-27T08:56:11.298Z,26.18
2017-08-27T08:57:11.295Z,26.31
2017-08-27T08:58:10.976Z,26.19
2017-08-27T08:59:10.664Z,26.29
2017-08-27T09:00:10.685Z,26.27
2017-08-27T09:01:11.313Z,26.3
2017-08-27T09:02:10.972Z,26.24
2017-08-27T09:03:11.281Z,26.26
2017-08-27T09:04:10.972Z,26.26
2017-08-27T09:05:10.969Z,26.3
2017-08-27T09:06:10.970Z,26.3
2017-08-27T09:07:11.283Z,26.22
2017-08-27T09:08:10.649Z,26.16
2017-08-27T09:09:10.654Z,26.18
2017-08-27T09:10:10.961Z,26.23
2017-08-27T09:11:10.963Z,26.22
2017-08-27T09:12:10.649Z,26.29
2017-08-27T09:13:10.959Z,26.29
2017-08-27T09:14:10.955Z,26.27
2017-08-27T09:15:10.644Z,26.29
2017-08-27T09:16:11.052Z,26.33
2017-08-27T09:17:10.949Z,26.37
2017-08-27T09:18:10.952Z,26.36
2017-08-27T09:19:11.286Z,26.41
2017-08-27T09:20:10.634Z,26.52
2017-08-27T09:21:10.947Z,26.64
2017-08-27T09:22:10.954Z,26.61
2017-08-27T09:23:11.293Z,26.59
2017-08-27T09:24:11.257Z,26.66
2017-08-27T09:25:10.941Z,26.76
2017-08-27T09:26:11.252Z,26.67
2017-08-27T09:27:11.042Z,26.74
2017-08-27T09:28:10.935Z,26.7
2017-08-27T09:29:10.624Z,26.73
2017-08-27T09:30:11.249Z,26.76
2017-08-27T09:31:10.932Z,26.76
2017-08-27T09:32:10.933Z,26.67
2017-08-27T09:33:10.929Z,26.67
2017-08-27T09:34:11.244Z,26.7
2017-08-27T09:35:11.241Z,26.6
2017-08-27T09:36:10.712Z,26.61
2017-08-27T09:37:11.238Z,26.66
2017-08-27T09:38:10.930Z,26.59
2017-08-27T09:39:10.921Z,26.61
2017-08-27T09:40:11.232Z,26.66
2017-08-27T09:41:11.278Z,26.64
2017-08-27T09:42:11.428Z,26.7
2017-08-27T09:43:10.919Z,26.67
2017-08-27T09:44:10.920Z,26.74
2017-08-27T09:45:11.252Z,26.76
2017-08-27T09:46:11.223Z,26.76
2017-08-27T09:47:10.909Z,26.74
2017-08-27T09:48:10.595Z,26.7
2017-08-27T09:49:11.216Z,26.7
2017-08-27T09:50:10.909Z,26.7
2017-08-27T09:51:11.220Z,26.79
2017-08-27T09:52:10.592Z,26.82
2017-08-27T09:53:10.589Z,26.79
2017-08-27T09:54:11.210Z,26.78
2017-08-27T09:55:10.903Z,26.82
2017-08-27T09:56:10.901Z,26.89
2017-08-27T09:57:10.899Z,26.93
2017-08-27T09:58:11.214Z,26.91
2017-08-27T09:59:10.906Z,26.83
2017-08-27T10:00:11.207Z,26.89
2017-08-27T10:01:10.579Z,26.86
2017-08-27T10:02:10.891Z,26.85
2017-08-27T10:03:10.892Z,26.76
2017-08-27T10:04:11.201Z,26.76
2017-08-27T10:05:10.887Z,26.82
2017-08-27T10:06:10.572Z,26.85
2017-08-27T10:07:10.668Z,26.79
2017-08-27T10:08:11.217Z,26.78
2017-08-27T10:09:10.883Z,26.89
2017-08-27T10:10:10.879Z,26.86
2017-08-27T10:11:10.881Z,26.89
2017-08-27T10:12:10.885Z,26.88
2017-08-27T10:13:10.872Z,26.91
2017-08-27T10:14:10.558Z,26.82
2017-08-27T10:15:11.184Z,26.85
2017-08-27T10:16:11.181Z,26.88
2017-08-27T10:17:11.183Z,26.89
2017-08-27T10:18:10.869Z,26.91
2017-08-27T10:19:11.181Z,26.92
2017-08-27T10:20:10.553Z,27
2017-08-27T10:21:10.861Z,27
2017-08-27T10:22:10.864Z,26.89
2017-08-27T10:23:11.177Z,26.92
2017-08-27T10:24:10.856Z,26.91
2017-08-27T10:25:11.175Z,26.85
2017-08-27T10:26:10.541Z,26.96
2017-08-27T10:27:10.852Z,27.01
2017-08-27T10:28:11.164Z,27.18
2017-08-27T10:29:10.852Z,27.28
2017-08-27T10:30:11.262Z,27.33
2017-08-27T10:31:10.846Z,27.47
2017-08-27T10:32:11.158Z,27.55
2017-08-27T10:33:10.530Z,27.53
2017-08-27T10:34:11.158Z,27.6
2017-08-27T10:35:11.153Z,27.61
2017-08-27T10:36:10.840Z,27.73
2017-08-27T10:37:11.154Z,27.81
2017-08-27T10:38:11.157Z,27.83
2017-08-27T10:39:11.153Z,27.82
2017-08-27T10:40:11.245Z,27.78
2017-08-27T10:41:10.836Z,27.75
2017-08-27T10:42:10.522Z,27.78
2017-08-27T10:43:11.145Z,27.76
2017-08-27T10:44:10.829Z,27.82
2017-08-27T10:45:10.516Z,27.79
2017-08-27T10:46:11.144Z,27.71
2017-08-27T10:47:10.829Z,27.78
2017-08-27T10:48:10.826Z,27.79
2017-08-27T10:49:10.844Z,27.75
2017-08-27T10:50:10.826Z,27.75
2017-08-27T10:51:11.144Z,27.72
2017-08-27T10:52:10.507Z,27.75
2017-08-27T10:53:10.818Z,27.68
2017-08-27T10:54:11.144Z,27.72
2017-08-27T10:55:10.816Z,27.68
2017-08-27T10:56:11.128Z,27.64
2017-08-27T10:57:10.822Z,27.71
2017-08-27T10:58:10.810Z,27.64
2017-08-27T10:59:10.810Z,27.64
2017-08-27T11:00:10.810Z,27.75
2017-08-27T11:01:10.813Z,27.78
2017-08-27T11:02:11.116Z,27.81
2017-08-27T11:03:11.118Z,27.79
2017-08-27T11:04:10.493Z,27.88
2017-08-27T11:05:10.807Z,27.88
2017-08-27T11:06:10.798Z,27.82
2017-08-27T11:07:10.485Z,27.86
2017-08-27T11:08:10.483Z,27.9
2017-08-27T11:09:11.115Z,27.91
2017-08-27T11:10:10.794Z,27.88
2017-08-27T11:11:10.792Z,27.93
2017-08-27T11:12:10.797Z,27.91
2017-08-27T11:13:10.793Z,27.91
2017-08-27T11:14:10.792Z,27.86
2017-08-27T11:15:11.207Z,27.86
2017-08-27T11:16:10.790Z,27.93
2017-08-27T11:17:10.784Z,27.97
2017-08-27T11:18:11.102Z,28.03
2017-08-27T11:19:10.798Z,28
2017-08-27T11:20:10.785Z,27.98
2017-08-27T11:21:11.103Z,27.94
2017-08-27T11:22:11.094Z,28.04
2017-08-27T11:23:10.464Z,28.03
2017-08-27T11:24:10.874Z,27.9
2017-08-27T11:25:10.777Z,27.93
2017-08-27T11:26:10.876Z,27.88
2017-08-27T11:27:10.773Z,27.94
2017-08-27T11:28:10.458Z,27.88
2017-08-27T11:29:10.875Z,27.97
2017-08-27T11:30:10.459Z,27.91
2017-08-27T11:31:10.455Z,27.98
2017-08-27T11:32:10.867Z,27.95
2017-08-27T11:33:10.765Z,28.04
2017-08-27T11:34:11.078Z,28.03
2017-08-27T11:35:10.449Z,28
2017-08-27T11:36:11.074Z,28.09
2017-08-27T11:37:10.549Z,28.06
2017-08-27T11:38:11.072Z,28.09
2017-08-27T11:39:11.074Z,27.98
2017-08-27T11:40:10.762Z,28.09
2017-08-27T11:41:10.444Z,28.12
2017-08-27T11:42:11.072Z,28.12
2017-08-27T11:43:10.754Z,28.18
2017-08-27T11:44:11.070Z,28.19
2017-08-27T11:45:10.849Z,28.1
2017-08-27T11:46:10.436Z,28.23
2017-08-27T11:47:11.177Z,28.2
2017-08-27T11:48:11.064Z,28.28
2017-08-27T11:49:10.747Z,28.09
2017-08-27T11:50:10.434Z,28.25
2017-08-27T11:51:11.056Z,28.3
2017-08-27T11:52:10.753Z,28.33
2017-08-27T11:53:11.052Z,28.34
2017-08-27T11:54:10.738Z,28.27
2017-08-27T11:55:10.737Z,28.19
2017-08-27T11:56:11.048Z,28.33
2017-08-27T11:57:10.831Z,28.12
2017-08-27T11:58:11.049Z,28.18
2017-08-27T11:59:10.520Z,28.25
2017-08-27T12:00:11.145Z,28.28
2017-08-27T12:01:10.417Z,28.22
2017-08-27T12:02:10.418Z,28.33
2017-08-27T12:03:10.731Z,28.45
2017-08-27T12:04:10.824Z,28.27
2017-08-27T12:05:11.141Z,28.27
2017-08-27T12:06:10.726Z,28.27
2017-08-27T12:07:11.036Z,28.23
2017-08-27T12:08:11.031Z,28.23
2017-08-27T12:09:10.823Z,28.22
2017-08-27T12:10:11.039Z,28.13
2017-08-27T12:11:11.030Z,28.08
2017-08-27T12:12:10.722Z,28.06
2017-08-27T12:13:10.718Z,28.06
2017-08-27T12:14:11.030Z,27.95
2017-08-27T12:15:11.027Z,27.91
2017-08-27T12:16:10.710Z,27.93
2017-08-27T12:17:11.023Z,27.93
2017-08-27T12:18:10.711Z,27.9
2017-08-27T12:19:10.805Z,27.85
2017-08-27T12:20:10.707Z,27.86
2017-08-27T12:21:11.020Z,27.81
2017-08-27T12:22:10.707Z,27.82
2017-08-27T12:23:11.020Z,27.78
2017-08-27T12:24:10.389Z,27.78
2017-08-27T12:25:11.035Z,27.64
2017-08-27T12:26:11.010Z,27.66
2017-08-27T12:27:11.011Z,27.55
2017-08-27T12:28:11.045Z,27.53
2017-08-27T12:29:10.696Z,27.47
2017-08-27T12:30:10.693Z,27.43
2017-08-27T12:31:10.381Z,27.37
2017-08-27T12:32:10.378Z,27.25
2017-08-27T12:33:10.690Z,27.08
2017-08-27T12:34:10.377Z,27.05
2017-08-27T12:35:11.003Z,26.98
2017-08-27T12:36:10.474Z,26.96
2017-08-27T12:37:11.006Z,26.91
2017-08-27T12:38:10.685Z,26.91
2017-08-27T12:39:10.684Z,26.79
2017-08-27T12:40:10.682Z,26.88
2017-08-27T12:41:10.996Z,26.78
2017-08-27T12:42:10.466Z,26.73
2017-08-27T12:43:10.994Z,26.7
2017-08-27T12:44:10.671Z,26.63
2017-08-27T12:45:10.991Z,26.63
2017-08-27T12:46:10.988Z,26.6
2017-08-27T12:47:10.676Z,26.53
2017-08-27T12:48:10.772Z,26.55
2017-08-27T12:49:10.668Z,26.49
2017-08-27T12:50:10.984Z,26.53
2017-08-27T12:51:10.669Z,26.6
2017-08-27T12:52:10.976Z,26.52
2017-08-27T12:53:10.666Z,26.6
2017-08-27T12:54:10.974Z,26.55
2017-08-27T12:55:10.656Z,26.6
2017-08-27T12:56:10.987Z,26.61